Time,TemperatureF,DewpointF,PressureIn,WindDirection,WindDirectionDegrees,WindSpeedMPH,WindSpeedGustMPH,Humidity,HourlyPrecipIn,Conditions,Clouds,dailyrainin,SoftwareType,DateUTC
2013-05-27 00:02:00,54.0,45.0,-100.00,East,100,11.0,15.0,67,0.00,,,0.00,,2013-05-27 05:02:00,
2013-05-27 00:12:00,54.0,43.0,-100.00,East,90,9.0,12.0,67,0.00,,,0.00,,2013-05-27 05:12:00,
2013-05-27 00:22:00,54.0,43.0,-100.00,East,85,10.0,13.0,66,0.00,,,0.00,,2013-05-27 05:22:00,
2013-05-27 00:32:00,54.0,43.0,-100.00,East,85,11.0,14.0,64,0.00,,,0.00,,2013-05-27 05:32:00,
2013-05-27 00:42:00,53.0,43.0,-100.00,East,80,7.0,12.0,66,0.00,,,0.00,,2013-05-27 05:42:00,
2013-05-27 00:52:00,53.0,43.0,-100.00,East,85,7.0,12.0,66,0.00,,,0.00,,2013-05-27 05:52:00,
2013-05-27 01:01:00,54.0,43.0,-100.00,ESE,110,5.0,10.0,65,0.00,,,0.00,,2013-05-27 06:01:00,
2013-05-27 01:11:00,54.0,43.0,-100.00,East,95,5.0,7.0,66,0.00,,,0.00,,2013-05-27 06:11:00,
2013-05-27 01:21:00,54.0,43.0,-100.00,ESE,110,5.0,6.0,67,0.00,,,0.00,,2013-05-27 06:21:00,
2013-05-27 01:32:00,54.0,43.0,-100.00,ESE,115,5.0,7.0,66,0.00,,,0.00,,2013-05-27 06:32:00,
2013-05-27 01:42:00,54.0,43.0,-100.00,ESE,110,5.0,7.0,66,0.00,,,0.00,,2013-05-27 06:42:00,
2013-05-27 01:52:00,54.0,43.0,-100.00,East,100,6.0,6.0,67,0.00,,,0.00,,2013-05-27 06:52:00,
2013-05-27 02:02:00,54.0,43.0,-100.00,East,90,6.0,7.0,67,0.00,,,0.00,,2013-05-27 07:02:00,
2013-05-27 02:11:00,54.0,43.0,-100.00,East,90,6.0,8.0,67,0.00,,,0.00,,2013-05-27 07:11:00,
2013-05-27 02:21:00,54.0,43.0,-100.00,East,85,6.0,9.0,66,0.00,,,0.00,,2013-05-27 07:21:00,
2013-05-27 02:32:00,53.0,43.0,-100.00,ENE,75,6.0,9.0,66,0.00,,,0.00,,2013-05-27 07:32:00,
2013-05-27 02:41:00,53.0,43.0,-100.00,East,80,6.0,9.0,66,0.00,,,0.00,,2013-05-27 07:41:00,
2013-05-27 02:52:00,54.0,43.0,-100.00,East,100,6.0,9.0,65,0.00,,,0.00,,2013-05-27 07:52:00,
2013-05-27 03:02:00,54.0,43.0,-100.00,ESE,105,6.0,9.0,65,0.00,,,0.00,,2013-05-27 08:02:00,
2013-05-27 03:11:00,54.0,43.0,-100.00,ESE,115,6.0,9.0,64,0.00,,,0.00,,2013-05-27 08:11:00,
2013-05-27 03:22:00,54.0,41.0,-100.00,ESE,115,7.0,9.0,63,0.00,,,0.00,,2013-05-27 08:22:00,
2013-05-27 03:32:00,54.0,41.0,-100.00,ESE,110,4.0,7.0,63,0.00,,,0.00,,2013-05-27 08:32:00,
2013-05-27 03:42:00,53.0,41.0,-100.00,ESE,110,6.0,7.0,64,0.00,,,0.00,,2013-05-27 08:42:00,
2013-05-27 03:52:00,53.0,41.0,-100.00,ESE,110,6.0,7.0,63,0.00,,,0.00,,2013-05-27 08:52:00,
2013-05-27 04:02:00,54.0,41.0,-100.00,East,90,5.0,9.0,63,0.00,,,0.00,,2013-05-27 09:02:00,
2013-05-27 04:11:00,54.0,41.0,-100.00,East,95,6.0,7.0,62,0.00,,,0.00,,2013-05-27 09:11:00,
2013-05-27 04:21:00,54.0,41.0,-100.00,East,100,6.0,9.0,61,0.00,,,0.00,,2013-05-27 09:21:00,
2013-05-27 04:33:00,53.0,41.0,-100.00,East,80,6.0,10.0,62,0.00,,,0.00,,2013-05-27 09:33:00,
2013-05-27 04:42:00,53.0,41.0,-100.00,ENE,70,7.0,9.0,63,0.00,,,0.00,,2013-05-27 09:42:00,
2013-05-27 04:52:00,51.0,41.0,-100.00,ENE,75,6.0,9.0,66,0.00,,,0.00,,2013-05-27 09:52:00,
2013-05-27 05:02:00,51.0,41.0,-100.00,East,80,7.0,9.0,66,0.00,,,0.00,,2013-05-27 10:02:00,
2013-05-27 05:12:00,50.0,41.0,-100.00,East,80,7.0,9.0,68,0.00,,,0.00,,2013-05-27 10:12:00,
2013-05-27 05:22:00,50.0,41.0,-100.00,ENE,70,7.0,9.0,68,0.00,,,0.00,,2013-05-27 10:22:00,
2013-05-27 05:32:00,50.0,41.0,-100.00,East,90,7.0,10.0,68,0.00,,,0.00,,2013-05-27 10:32:00,
2013-05-27 05:42:00,50.0,39.0,-100.00,East,85,6.0,10.0,68,0.00,,,0.00,,2013-05-27 10:42:00,
2013-05-27 05:52:00,50.0,41.0,-100.00,East,90,6.0,9.0,69,0.00,,,0.00,,2013-05-27 10:52:00,
2013-05-27 06:02:00,49.0,39.0,-100.00,East,80,6.0,8.0,69,0.00,,,0.00,,2013-05-27 11:02:00,
2013-05-27 06:11:00,49.0,39.0,-100.00,East,80,6.0,7.0,70,0.00,,,0.00,,2013-05-27 11:11:00,
2013-05-27 06:22:00,49.0,39.0,-100.00,East,85,6.0,8.0,70,0.00,,,0.00,,2013-05-27 11:22:00,
2013-05-27 06:32:00,49.0,39.0,-100.00,East,80,7.0,9.0,69,0.00,,,0.00,,2013-05-27 11:32:00,
2013-05-27 06:42:00,49.0,39.0,-100.00,ENE,75,7.0,11.0,69,0.00,,,0.00,,2013-05-27 11:42:00,
2013-05-27 06:52:00,50.0,39.0,-100.00,ENE,65,6.0,9.0,68,0.00,,,0.00,,2013-05-27 11:52:00,
2013-05-27 07:01:00,50.0,41.0,-100.00,ENE,75,7.0,8.0,68,0.00,,,0.00,,2013-05-27 12:01:00,
2013-05-27 07:11:00,50.0,41.0,-100.00,ENE,70,7.0,9.0,68,0.00,,,0.00,,2013-05-27 12:11:00,
2013-05-27 07:21:00,50.0,41.0,-100.00,ENE,65,9.0,12.0,67,0.00,,,0.00,,2013-05-27 12:21:00,
2013-05-27 07:32:00,51.0,41.0,-100.00,East,85,7.0,12.0,67,0.00,,,0.00,,2013-05-27 12:32:00,
2013-05-27 07:42:00,51.0,41.0,-100.00,East,85,7.0,11.0,66,0.00,,,0.00,,2013-05-27 12:42:00,
2013-05-27 07:52:00,51.0,41.0,-100.00,East,95,9.0,12.0,66,0.00,,,0.00,,2013-05-27 12:52:00,
2013-05-27 08:01:00,52.0,41.0,-100.00,East,85,9.0,12.0,66,0.00,,,0.00,,2013-05-27 13:01:00,
2013-05-27 08:11:00,52.0,41.0,-100.00,East,80,8.0,12.0,67,0.00,,,0.00,,2013-05-27 13:11:00,
2013-05-27 08:21:00,53.0,43.0,-100.00,East,80,9.0,12.0,66,0.00,,,0.00,,2013-05-27 13:21:00,
2013-05-27 08:32:00,53.0,43.0,-100.00,ESE,105,7.0,11.0,67,0.00,,,0.00,,2013-05-27 13:32:00,
2013-05-27 08:41:00,53.0,43.0,-100.00,ESE,105,9.0,13.0,67,0.00,,,0.00,,2013-05-27 13:41:00,
2013-05-27 08:52:00,53.0,43.0,-100.00,East,100,12.0,15.0,67,0.00,,,0.00,,2013-05-27 13:52:00,
2013-05-27 09:01:00,53.0,43.0,-100.00,East,95,11.0,15.0,68,0.00,,,0.00,,2013-05-27 14:01:00,
2013-05-27 09:11:00,54.0,43.0,-100.00,East,85,9.0,15.0,68,0.00,,,0.00,,2013-05-27 14:11:00,
2013-05-27 09:21:00,54.0,45.0,-100.00,ESE,105,10.0,14.0,69,0.00,,,0.00,,2013-05-27 14:21:00,
2013-05-27 09:32:00,54.0,45.0,-100.00,East,90,9.0,14.0,69,0.00,,,0.00,,2013-05-27 14:32:00,
2013-05-27 09:42:00,54.0,45.0,-100.00,East,85,13.0,17.0,70,0.00,,,0.00,,2013-05-27 14:42:00,
2013-05-27 09:51:00,55.0,46.0,-100.00,ENE,75,14.0,19.0,71,0.00,,,0.00,,2013-05-27 14:51:00,
2013-05-27 10:01:00,55.0,46.0,-100.00,East,95,16.0,21.0,71,0.00,,,0.00,,2013-05-27 15:01:00,
2013-05-27 10:11:00,55.0,46.0,-100.00,ESE,105,18.0,24.0,71,0.00,,,0.00,,2013-05-27 15:11:00,
2013-05-27 10:21:00,55.0,46.0,-100.00,East,85,14.0,21.0,71,0.00,,,0.00,,2013-05-27 15:21:00,
2013-05-27 10:33:00,55.0,46.0,-100.00,East,90,12.0,20.0,71,0.00,,,0.00,,2013-05-27 15:33:00,
2013-05-27 10:43:00,55.0,46.0,-100.00,East,95,9.0,16.0,71,0.00,,,0.00,,2013-05-27 15:43:00,
2013-05-27 10:53:00,55.0,46.0,-100.00,East,95,11.0,15.0,71,0.00,,,0.00,,2013-05-27 15:53:00,
2013-05-27 11:03:00,56.0,46.0,-100.00,SE,130,10.0,13.0,71,0.00,,,0.00,,2013-05-27 16:03:00,
2013-05-27 11:12:00,56.0,46.0,-100.00,ESE,115,9.0,13.0,71,0.00,,,0.00,,2013-05-27 16:12:00,
2013-05-27 11:23:00,56.0,46.0,-100.00,ESE,105,7.0,12.0,71,0.00,,,0.00,,2013-05-27 16:23:00,
2013-05-27 11:33:00,56.0,46.0,-100.00,East,95,8.0,11.0,70,0.00,,,0.00,,2013-05-27 16:33:00,
2013-05-27 11:42:00,56.0,46.0,-100.00,ESE,120,10.0,14.0,70,0.00,,,0.00,,2013-05-27 16:42:00,
2013-05-27 11:52:00,56.0,46.0,-100.00,ESE,120,10.0,12.0,70,0.00,,,0.00,,2013-05-27 16:52:00,
2013-05-27 12:02:00,56.0,46.0,-100.00,ESE,115,12.0,17.0,71,0.00,,,0.00,,2013-05-27 17:02:00,
2013-05-27 12:11:00,56.0,46.0,-100.00,East,100,11.0,16.0,71,0.00,,,0.00,,2013-05-27 17:11:00,
2013-05-27 12:22:00,56.0,46.0,-100.00,East,90,11.0,13.0,70,0.00,,,0.00,,2013-05-27 17:22:00,
2013-05-27 12:32:00,56.0,46.0,-100.00,ESE,110,12.0,16.0,70,0.00,,,0.00,,2013-05-27 17:32:00,
2013-05-27 12:43:00,57.0,46.0,-100.00,ESE,115,11.0,15.0,68,0.00,,,0.00,,2013-05-27 17:43:00,
2013-05-27 12:52:00,59.0,48.0,-100.00,ESE,115,11.0,16.0,66,0.00,,,0.00,,2013-05-27 17:52:00,
2013-05-27 13:02:00,59.0,48.0,-100.00,East,95,11.0,15.0,65,0.00,,,0.00,,2013-05-27 18:02:00,
2013-05-27 13:11:00,59.0,48.0,-100.00,East,80,9.0,15.0,66,0.00,,,0.00,,2013-05-27 18:11:00,
2013-05-27 13:22:00,60.0,48.0,-100.00,East,95,10.0,15.0,65,0.00,,,0.00,,2013-05-27 18:22:00,
2013-05-27 13:32:00,60.0,48.0,-100.00,ENE,75,10.0,16.0,65,0.00,,,0.00,,2013-05-27 18:32:00,
2013-05-27 13:42:00,60.0,48.0,-100.00,East,80,10.0,17.0,65,0.00,,,0.00,,2013-05-27 18:42:00,
2013-05-27 13:52:00,60.0,48.0,-100.00,East,90,14.0,17.0,64,0.00,,,0.00,,2013-05-27 18:52:00,
2013-05-27 14:01:00,59.0,48.0,-100.00,ESE,105,12.0,16.0,65,0.00,,,0.00,,2013-05-27 19:01:00,
2013-05-27 14:11:00,60.0,48.0,-100.00,ESE,105,11.0,16.0,65,0.00,,,0.00,,2013-05-27 19:11:00,
2013-05-27 14:21:00,60.0,48.0,-100.00,East,80,11.0,17.0,63,0.00,,,0.00,,2013-05-27 19:21:00,
2013-05-27 14:32:00,60.0,48.0,-100.00,ESE,105,12.0,16.0,63,0.00,,,0.00,,2013-05-27 19:32:00,
2013-05-27 14:42:00,60.0,48.0,-100.00,East,95,11.0,16.0,63,0.00,,,0.00,,2013-05-27 19:42:00,
2013-05-27 14:52:00,60.0,48.0,-100.00,East,100,9.0,15.0,62,0.00,,,0.00,,2013-05-27 19:52:00,
2013-05-27 15:01:00,60.0,46.0,-100.00,ESE,105,12.0,17.0,61,0.00,,,0.00,,2013-05-27 20:01:00,
2013-05-27 15:11:00,60.0,46.0,-100.00,East,95,11.0,15.0,61,0.00,,,0.00,,2013-05-27 20:11:00,
2013-05-27 15:22:00,61.0,46.0,-100.00,East,95,9.0,16.0,60,0.00,,,0.00,,2013-05-27 20:22:00,
2013-05-27 15:32:00,61.0,46.0,-100.00,East,95,7.0,14.0,60,0.00,,,0.00,,2013-05-27 20:32:00,
2013-05-27 15:42:00,61.0,46.0,-100.00,East,95,7.0,14.0,60,0.00,,,0.00,,2013-05-27 20:42:00,
2013-05-27 15:52:00,61.0,46.0,-100.00,ESE,110,9.0,14.0,60,0.00,,,0.00,,2013-05-27 20:52:00,
2013-05-27 16:01:00,61.0,46.0,-100.00,SE,125,9.0,16.0,60,0.00,,,0.00,,2013-05-27 21:01:00,
2013-05-27 16:12:00,61.0,48.0,-100.00,East,100,11.0,16.0,61,0.00,,,0.00,,2013-05-27 21:12:00,
2013-05-27 16:21:00,61.0,48.0,-100.00,SE,125,10.0,14.0,61,0.00,,,0.00,,2013-05-27 21:21:00,
2013-05-27 16:33:00,61.0,48.0,-100.00,ESE,105,11.0,15.0,61,0.00,,,0.00,,2013-05-27 21:33:00,
2013-05-27 16:43:00,61.0,48.0,-100.00,ESE,120,11.0,14.0,61,0.00,,,0.00,,2013-05-27 21:43:00,
2013-05-27 16:53:00,61.0,48.0,-100.00,SE,125,10.0,14.0,61,0.00,,,0.00,,2013-05-27 21:53:00,
2013-05-27 17:02:00,61.0,48.0,-100.00,ESE,115,16.0,20.0,62,0.00,,,0.00,,2013-05-27 22:02:00,
2013-05-27 17:12:00,61.0,48.0,-100.00,ESE,110,15.0,20.0,63,0.00,,,0.00,,2013-05-27 22:12:00,
2013-05-27 17:22:00,61.0,48.0,-100.00,ESE,115,10.0,17.0,63,0.00,,,0.00,,2013-05-27 22:22:00,
2013-05-27 17:32:00,60.0,48.0,-100.00,ESE,110,17.0,22.0,65,0.00,,,0.00,,2013-05-27 22:32:00,
2013-05-27 17:42:00,60.0,50.0,-100.00,ESE,120,14.0,19.0,67,0.00,,,0.00,,2013-05-27 22:42:00,
2013-05-27 17:52:00,60.0,50.0,-100.00,SE,125,10.0,18.0,67,0.00,,,0.00,,2013-05-27 22:52:00,
2013-05-27 18:02:00,60.0,50.0,-100.00,ESE,110,10.0,12.0,66,0.00,,,0.00,,2013-05-27 23:02:00,
2013-05-27 18:12:00,60.0,50.0,-100.00,SE,125,11.0,18.0,66,0.00,,,0.00,,2013-05-27 23:12:00,
2013-05-27 18:22:00,60.0,48.0,-100.00,ESE,105,12.0,21.0,66,0.00,,,0.00,,2013-05-27 23:22:00,
2013-05-27 18:32:00,60.0,50.0,-100.00,ESE,115,10.0,17.0,67,0.00,,,0.00,,2013-05-27 23:32:00,
2013-05-27 18:42:00,60.0,50.0,-100.00,SE,125,6.0,15.0,67,0.00,,,0.00,,2013-05-27 23:42:00,
2013-05-27 18:52:00,60.0,50.0,-100.00,SE,130,9.0,12.0,69,0.00,,,0.00,,2013-05-27 23:52:00,
2013-05-27 19:01:00,59.0,50.0,-100.00,ESE,110,14.0,17.0,73,0.00,,,0.00,,2013-05-28 00:01:00,
2013-05-27 19:11:00,59.0,52.0,-100.00,ESE,120,12.0,17.0,74,0.00,,,0.00,,2013-05-28 00:11:00,
2013-05-27 19:21:00,59.0,52.0,-100.00,East,95,12.0,15.0,77,0.00,,,0.00,,2013-05-28 00:21:00,
2013-05-27 19:31:00,58.0,52.0,-100.00,ESE,105,13.0,16.0,77,0.00,,,0.00,,2013-05-28 00:31:00,
2013-05-27 19:41:00,59.0,52.0,-100.00,ESE,105,12.0,15.0,78,0.00,,,0.00,,2013-05-28 00:41:00,
2013-05-27 19:52:00,58.0,52.0,-100.00,SE,125,9.0,13.0,79,0.00,,,0.00,,2013-05-28 00:52:00,
2013-05-27 20:01:00,58.0,54.0,-100.00,ESE,115,10.0,15.0,82,0.00,,,0.00,,2013-05-28 01:01:00,
2013-05-27 20:11:00,57.0,54.0,-100.00,ESE,120,9.0,13.0,87,0.00,,,0.00,,2013-05-28 01:11:00,
2013-05-27 20:21:00,57.0,54.0,-100.00,ESE,120,7.0,12.0,90,0.00,,,0.00,,2013-05-28 01:21:00,
2013-05-27 20:32:00,56.0,54.0,-100.00,ESE,115,6.0,10.0,91,0.00,,,0.00,,2013-05-28 01:32:00,
2013-05-27 20:41:00,56.0,54.0,-100.00,ESE,105,4.0,7.0,91,0.00,,,0.00,,2013-05-28 01:41:00,
2013-05-27 20:52:00,56.0,54.0,-100.00,East,85,4.0,6.0,92,0.00,,,0.00,,2013-05-28 01:52:00,
2013-05-27 21:02:00,56.0,54.0,-100.00,East,90,4.0,6.0,92,0.00,,,0.00,,2013-05-28 02:02:00,
2013-05-27 21:11:00,56.0,54.0,-100.00,East,85,4.0,6.0,92,0.00,,,0.00,,2013-05-28 02:11:00,
2013-05-27 21:21:00,56.0,54.0,-100.00,SE,125,3.0,6.0,92,0.00,,,0.00,,2013-05-28 02:21:00,
2013-05-27 21:32:00,56.0,54.0,-100.00,ESE,105,4.0,6.0,91,0.00,,,0.00,,2013-05-28 02:32:00,
2013-05-27 21:42:00,56.0,54.0,-100.00,East,100,4.0,6.0,91,0.00,,,0.00,,2013-05-28 02:42:00,
2013-05-27 21:51:00,56.0,54.0,-100.00,ESE,120,3.0,5.0,90,0.00,,,0.00,,2013-05-28 02:51:00,
2013-05-27 22:01:00,56.0,54.0,-100.00,ESE,115,3.0,4.0,90,0.00,,,0.00,,2013-05-28 03:01:00,
2013-05-27 22:11:00,56.0,54.0,-100.00,ESE,105,4.0,5.0,89,0.00,,,0.00,,2013-05-28 03:11:00,
2013-05-27 22:21:00,56.0,54.0,-100.00,East,90,5.0,6.0,87,0.00,,,0.00,,2013-05-28 03:21:00,
2013-05-27 22:33:00,56.0,52.0,-100.00,East,95,6.0,8.0,82,0.00,,,0.00,,2013-05-28 03:33:00,
2013-05-27 22:43:00,57.0,52.0,-100.00,SE,125,4.0,7.0,80,0.00,,,0.00,,2013-05-28 03:43:00,
2013-05-27 22:53:00,57.0,50.0,-100.00,ESE,120,4.0,7.0,79,0.00,,,0.00,,2013-05-28 03:53:00,
2013-05-27 23:02:00,57.0,50.0,-100.00,ESE,120,3.0,6.0,77,0.00,,,0.00,,2013-05-28 04:02:00,
2013-05-27 23:12:00,57.0,50.0,-100.00,ESE,105,3.0,6.0,77,0.00,,,0.00,,2013-05-28 04:12:00,
2013-05-27 23:22:00,56.0,50.0,-100.00,East,100,6.0,7.0,76,0.00,,,0.00,,2013-05-28 04:22:00,
2013-05-27 23:33:00,56.0,48.0,-100.00,ESE,110,6.0,7.0,75,0.00,,,0.00,,2013-05-28 04:33:00,
2013-05-27 23:42:00,56.0,48.0,-100.00,ESE,110,6.0,7.0,74,0.00,,,0.00,,2013-05-28 04:42:00,
2013-05-27 23:52:00,56.0,48.0,-100.00,ESE,110,7.0,9.0,71,0.00,,,0.00,,2013-05-28 04:52:00,